Time;durP1;ratioP1;P1;durP2;ratioP2;P2;SDS_P1;SDS_P2;PMS_P1;PMS_P2;Temp;Humidity;BMP_temperature;BMP_pressure;BME280_temperature;BME280_humidity;BME280_pressure;Samples;Min_cycle;Max_cycle;Signal;HPM_P1;HPM_P2
2022/04/06 00:00:16;;;;;;;15.18;9.45;;;;;;;2.41;76.36;97831.56;4984553;28;20057;-88
2022/04/06 00:02:43;;;;;;;14.75;8.80;;;;;;;2.39;76.51;97823.84;4982254;28;20062;-88
2022/04/06 00:05:10;;;;;;;15.65;9.13;;;;;;;2.35;76.41;97814.38;4978117;28;20093;-86
2022/04/06 00:07:39;;;;;;;14.48;9.35;;;;;;;2.29;76.57;97816.09;4962867;28;20065;-87
2022/04/06 00:10:08;;;;;;;16.73;9.48;;;;;;;2.30;76.65;97810.91;4945616;28;20516;-89
2022/04/06 00:12:38;;;;;;;14.35;8.95;;;;;;;2.35;76.22;97826.44;4962042;28;20058;-89
2022/04/06 00:15:09;;;;;;;14.45;9.32;;;;;;;2.41;76.63;97831.56;4929525;28;20047;-88
2022/04/06 00:17:37;;;;;;;;;;;;;;;2.31;76.28;97827.25;4978459;28;20149;-89
2022/04/06 00:20:06;;;;;;;14.82;9.13;;;;;;;2.35;76.34;97835.00;4960447;28;20307;-88
2022/04/06 00:22:33;;;;;;;13.95;8.98;;;;;;;2.11;76.53;97784.25;4959903;28;20046;-89
2022/04/06 00:25:00;;;;;;;13.38;9.23;;;;;;;2.32;76.53;97814.38;4959580;28;20061;-88
2022/04/06 00:27:28;;;;;;;15.50;9.52;;;;;;;2.24;76.50;97808.34;4959162;28;20058;-87
2022/04/06 00:29:56;;;;;;;14.35;8.57;;;;;;;2.46;76.22;97833.31;4959172;28;20477;-89
2022/04/06 00:32:23;;;;;;;14.52;9.93;;;;;;;2.45;76.54;97839.34;4959047;28;20055;-87
2022/04/06 00:37:36;;;;;;;14.18;9.38;;;;;;;2.24;76.65;97806.63;4976278;28;20051;-87
2022/04/06 00:40:04;;;;;;;15.43;9.50;;;;;;;2.43;76.68;97840.16;4964905;28;20082;-87
2022/04/06 00:42:31;;;;;;;16.27;9.30;;;;;;;2.42;76.74;97834.16;4983093;28;20524;-87
2022/04/06 00:44:59;;;;;;;16.98;10.15;;;;;;;2.46;76.61;97840.19;4984767;28;20054;-87
2022/04/06 00:47:26;;;;;;;15.23;9.90;;;;;;;2.36;76.59;97815.25;4983766;28;20145;-87
2022/04/06 00:49:53;;;;;;;16.15;9.95;;;;;;;2.51;76.74;97835.06;4982527;28;20153;-86
2022/04/06 00:52:21;;;;;;;13.77;8.75;;;;;;;2.35;76.80;97814.38;4976783;28;20424;-86
2022/04/06 00:54:49;;;;;;;14.85;9.85;;;;;;;2.48;76.54;97841.06;4963784;28;20058;-86
2022/04/06 00:57:19;;;;;;;14.63;9.27;;;;;;;2.39;76.81;97826.44;4978635;28;20080;-88
2022/04/06 00:59:56;;;;;;;15.68;9.60;;;;;;;2.49;76.62;97840.19;4997641;28;20117;-88
2022/04/06 01:02:25;;;;;;;13.20;8.80;;;;;;;2.51;76.74;97838.47;4978976;28;20054;-88
2022/04/06 01:04:52;;;;;;;13.50;9.32;;;;;;;2.52;76.91;97841.91;4995950;28;20470;-88
2022/04/06 01:07:20;;;;;;;14.43;9.07;;;;;;;2.47;76.96;97839.31;4981475;28;20050;-88
2022/04/06 01:09:47;;;;;;;13.80;8.93;;;;;;;2.37;77.38;97829.88;4986957;28;20047;-88
2022/04/06 01:12:15;;;;;;;13.88;9.20;;;;;;;2.49;77.02;97839.34;5019622;28;20033;-88
2022/04/06 01:14:42;;;;;;;15.27;9.23;;;;;;;2.36;77.02;97835.84;5013170;28;20134;-88
2022/04/06 01:17:09;;;;;;;14.77;9.45;;;;;;;2.50;77.03;97852.25;4978340;28;20090;-88
2022/04/06 01:19:38;;;;;;;15.23;9.32;;;;;;;2.52;76.83;97857.38;4995812;28;20539;-88
2022/04/06 01:22:11;;;;;;;13.43;9.13;;;;;;;2.45;76.93;97851.34;4978915;28;20054;-88
2022/04/06 01:24:40;;;;;;;14.70;9.05;;;;;;;2.37;77.08;97842.75;4962794;28;20060;-88
2022/04/06 01:27:08;;;;;;;14.43;9.40;;;;;;;2.42;76.76;97847.03;4979156;28;20447;-88
2022/04/06 01:29:35;;;;;;;13.88;9.15;;;;;;;2.42;77.13;97847.03;4978882;28;20459;-90
2022/04/06 01:32:11;;;;;;;12.85;9.02;;;;;;;2.49;76.80;97829.03;4995707;28;20133;-85
2022/04/06 01:34:40;;;;;;;14.55;8.73;;;;;;;2.80;76.54;97876.41;4994871;28;20084;-87
2022/04/06 01:37:09;;;;;;;13.85;8.93;;;;;;;2.87;76.06;97870.38;4994593;28;20050;-87
2022/04/06 01:39:37;;;;;;;13.32;8.93;;;;;;;2.83;76.25;97866.94;4994590;28;20193;-86
2022/04/06 01:42:07;;;;;;;14.73;9.20;;;;;;;2.87;76.09;97860.94;4994288;28;20050;-86
2022/04/06 01:44:34;;;;;;;13.90;8.90;;;;;;;2.95;75.92;97871.28;4994462;28;20419;-86
2022/04/06 01:47:06;;;;;;;14.32;8.80;;;;;;;2.97;75.60;97871.25;4977167;28;20109;-86
2022/04/06 01:52:22;;;;;;;14.32;8.77;;;;;;;2.73;75.55;97843.69;4986008;28;20144;-87
2022/04/06 01:54:52;;;;;;;13.05;8.38;;;;;;;2.64;75.64;97827.34;4969333;28;20050;-85
2022/04/06 01:57:20;;;;;;;13.95;8.25;;;;;;;2.93;75.26;97875.56;4969345;28;20055;-86
2022/04/06 01:59:48;;;;;;;13.07;8.70;;;;;;;2.92;75.43;97875.56;5003840;28;20108;-87
2022/04/06 02:02:17;;;;;;;11.73;8.52;;;;;;;2.86;75.26;97853.19;4983573;28;20418;-86
2022/04/06 02:04:45;;;;;;;12.27;8.40;;;;;;;2.79;75.47;97846.28;4994324;28;20065;-87
2022/04/06 02:07:13;;;;;;;10.45;7.35;;;;;;;2.86;74.83;97866.97;4996506;28;20054;-87
2022/04/06 02:09:41;;;;;;;12.25;8.52;;;;;;;2.92;75.06;97868.66;4979446;28;20050;-88
2022/04/06 02:12:09;;;;;;;12.75;8.10;;;;;;;2.91;75.02;97876.44;4997112;28;20050;-87
2022/04/06 02:14:38;;;;;;;12.20;8.38;;;;;;;2.64;75.27;97850.53;4995149;28;20469;-89
2022/04/06 02:17:07;;;;;;;13.45;8.07;;;;;;;2.77;74.99;97873.78;4977257;28;20467;-89
2022/04/06 02:19:36;;;;;;;12.80;8.35;;;;;;;2.34;75.15;97810.06;4961741;28;20100;-88
2022/04/06 02:22:05;;;;;;;11.35;8.23;;;;;;;2.76;75.13;97892.72;5005541;28;20077;-89
2022/04/06 02:24:33;;;;;;;12.63;7.78;;;;;;;2.62;74.73;97851.41;4962711;28;20073;-89
2022/04/06 02:27:01;;;;;;;10.85;7.53;;;;;;;2.48;75.11;97827.31;4991747;28;20102;-87
2022/04/06 02:29:29;;;;;;;11.40;7.95;;;;;;;2.75;74.78;97897.00;4988013;28;20050;-87
2022/04/06 02:31:56;;;;;;;13.80;8.73;;;;;;;2.21;74.75;97808.31;5003767;28;20057;-89
2022/04/06 02:34:24;;;;;;;13.15;8.10;;;;;;;2.68;74.93;97874.63;4981042;28;20057;-88
2022/04/06 02:36:51;;;;;;;12.38;7.95;;;;;;;2.87;74.48;97899.59;4952157;28;20058;-89
2022/04/06 02:39:18;;;;;;;12.27;7.82;;;;;;;2.41;74.74;97834.16;4945952;28;20405;-87
2022/04/06 02:41:46;;;;;;;13.88;7.95;;;;;;;2.46;74.47;97840.19;4962097;28;20503;-89
2022/04/06 02:44:13;;;;;;;12.68;7.80;;;;;;;2.93;74.39;97918.56;4979243;28;20046;-89
2022/04/06 02:46:41;;;;;;;11.15;7.78;;;;;;;2.94;74.06;97909.94;4980098;28;20464;-91
2022/04/06 02:49:10;;;;;;;11.80;7.78;;;;;;;2.82;74.38;97898.75;4936141;28;20058;-90
2022/04/06 02:51:37;;;;;;;11.45;7.65;;;;;;;2.49;73.63;97822.16;4953962;28;20424;-91
2022/04/06 02:54:06;;;;;;;11.43;7.53;;;;;;;2.92;73.97;97901.34;4926805;28;20491;-90
2022/04/06 02:56:34;;;;;;;12.32;7.75;;;;;;;2.99;73.77;97918.53;4942871;28;20568;-90
2022/04/06 02:59:02;;;;;;;12.63;8.18;;;;;;;2.67;73.41;97878.06;4943760;28;20512;-92
2022/04/06 03:01:30;;;;;;;11.98;7.72;;;;;;;2.99;73.02;97931.44;4943641;28;20059;-89
2022/04/06 03:03:58;;;;;;;10.68;7.35;;;;;;;2.66;73.12;97881.50;4957377;28;20079;-89
2022/04/06 03:06:25;;;;;;;9.95;6.78;;;;;;;2.75;72.87;97897.00;4988373;28;20078;-89
2022/04/06 03:09:00;;;;;;;11.00;7.20;;;;;;;2.43;72.16;97845.31;4980437;28;20031;-93
2022/04/06 03:11:34;;;;;;;9.90;6.32;;;;;;;2.00;72.23;97811.66;5015477;28;20062;-89
2022/04/06 03:14:03;;;;;;;7.75;5.10;;;;;;;2.92;71.66;97956.34;5001367;28;20054;-90
2022/04/06 03:16:30;;;;;;;6.00;4.25;;;;;;;2.92;71.01;97958.94;4982359;28;20524;-92
2022/04/06 03:18:57;;;;;;;4.90;3.70;;;;;;;2.88;70.75;97980.41;4999018;28;20061;-90
2022/04/06 03:21:25;;;;;;;5.63;3.80;;;;;;;2.50;70.16;97952.75;4965445;28;20088;-90
2022/04/06 03:23:52;;;;;;;5.55;3.70;;;;;;;1.93;70.23;97830.50;4980840;28;20052;-91
2022/04/06 03:26:19;;;;;;;4.03;2.85;;;;;;;2.43;69.67;97932.94;4998134;28;20050;-90
2022/04/06 03:28:47;;;;;;;4.97;3.08;;;;;;;2.49;69.44;97926.97;4982186;28;20053;-91
2022/04/06 03:31:14;;;;;;;3.00;2.60;;;;;;;2.78;69.11;97997.56;4981408;28;20051;-90
2022/04/06 03:33:42;;;;;;;4.95;3.08;;;;;;;2.57;69.08;97975.13;4952790;28;20058;-89
2022/04/06 03:36:09;;;;;;;4.18;3.05;;;;;;;2.82;69.12;98013.94;4953288;28;20051;-89
2022/04/06 03:38:36;;;;;;;4.47;3.28;;;;;;;2.78;68.49;98004.47;4973980;28;20153;-89
2022/04/06 03:41:04;;;;;;;3.63;3.10;;;;;;;2.96;68.39;98025.16;4957284;28;20077;-88
2022/04/06 03:43:31;;;;;;;3.95;2.90;;;;;;;2.53;68.04;97942.44;4983895;28;20077;-90
2022/04/06 03:45:58;;;;;;;4.80;3.10;;;;;;;3.06;67.33;98026.06;5004366;28;20054;-89
2022/04/06 03:48:26;;;;;;;4.15;3.05;;;;;;;2.02;67.10;97861.47;4971579;28;20058;-88
2022/04/06 03:50:55;;;;;;;3.80;3.20;;;;;;;2.57;66.79;97946.78;4987633;28;20038;-89
2022/04/06 03:53:22;;;;;;;4.50;3.42;;;;;;;2.64;66.59;97952.81;4987186;28;20048;-87
2022/04/06 03:55:50;;;;;;;4.68;2.95;;;;;;;3.27;66.51;98033.03;4972197;28;20058;-87
2022/04/06 03:58:18;;;;;;;4.45;3.03;;;;;;;2.95;65.91;97969.28;4971779;28;20054;-86
2022/04/06 04:00:45;;;;;;;4.40;3.17;;;;;;;3.39;65.22;98042.53;5020457;28;20054;-85
2022/04/06 04:03:12;;;;;;;5.18;3.20;;;;;;;3.38;65.21;98041.66;5017003;28;20578;-84
2022/04/06 04:05:44;;;;;;;3.30;3.00;;;;;;;3.19;64.51;98042.47;5001691;28;20078;-87
2022/04/06 04:08:12;;;;;;;3.80;2.80;;;;;;;3.45;64.44;98058.03;4984437;28;20061;-85
2022/04/06 04:10:40;;;;;;;2.83;1.98;;;;;;;3.08;63.23;97978.78;4984175;28;20459;-87
2022/04/06 04:13:07;;;;;;;2.17;1.65;;;;;;;3.53;61.55;98061.50;4967112;28;20080;-90
2022/04/06 04:15:34;;;;;;;2.92;1.58;;;;;;;3.57;60.77;98055.50;5000095;28;20050;-89
2022/04/06 04:18:02;;;;;;;1.63;1.52;;;;;;;3.56;60.18;98046.00;4980461;28;20280;-87
2022/04/06 04:20:29;;;;;;;3.35;1.58;;;;;;;3.73;59.79;98069.28;4972417;28;20038;-87
2022/04/06 04:23:00;;;;;;;1.70;1.55;;;;;;;3.80;58.46;98080.50;4978964;28;20050;-89
2022/04/06 04:25:27;;;;;;;1.65;1.23;;;;;;;3.80;58.62;98072.75;4964284;28;20608;-89
2022/04/06 04:27:54;;;;;;;1.45;1.20;;;;;;;4.10;57.46;98080.53;4977897;28;20055;-89
2022/04/06 04:30:24;;;;;;;1.75;1.08;;;;;;;3.94;56.47;98041.78;4961356;28;20057;-91
2022/04/06 04:32:51;;;;;;;0.73;0.73;;;;;;;3.41;55.96;97987.47;4946658;28;20050;-87
2022/04/06 04:35:19;;;;;;;1.10;0.90;;;;;;;3.79;55.85;98045.22;4961345;28;20056;-88
2022/04/06 04:37:49;;;;;;;3.45;0.80;;;;;;;4.02;55.54;98090.00;4962200;28;20061;-89
2022/04/06 04:40:16;;;;;;;1.42;0.88;;;;;;;3.61;55.63;98044.28;4962480;28;20050;-89
2022/04/06 04:42:44;;;;;;;2.35;1.00;;;;;;;3.44;55.89;98044.28;4963101;28;20066;-90
2022/04/06 04:45:11;;;;;;;5.63;2.50;;;;;;;3.71;55.45;98093.38;4984032;28;20059;-92
2022/04/06 04:47:40;;;;;;;2.47;1.73;;;;;;;3.81;55.77;98080.50;4965466;28;20066;-87
2022/04/06 04:50:08;;;;;;;1.83;0.80;;;;;;;3.51;55.03;98041.69;4978943;28;20512;-86
2022/04/06 04:52:36;;;;;;;1.48;1.13;;;;;;;3.41;55.37;98017.56;4978738;28;20046;-89
2022/04/06 04:55:03;;;;;;;2.05;1.27;;;;;;;4.04;55.17;98133.91;4979110;28;20062;-88
2022/04/06 04:57:31;;;;;;;2.25;1.27;;;;;;;4.13;55.18;98141.72;4962091;28;20150;-89
2022/04/06 05:00:08;;;;;;;1.88;1.40;;;;;;;3.81;53.94;98049.50;4961295;28;20059;-89
2022/04/06 05:02:36;;;;;;;2.58;1.13;;;;;;;4.32;54.07;98147.75;4979554;28;20051;-87
2022/04/06 05:05:06;;;;;;;2.70;1.60;;;;;;;4.27;54.08;98146.88;4961262;28;20055;-88
2022/04/06 05:07:37;;;;;;;1.30;1.20;;;;;;;4.36;53.33;98146.88;4961807;28;20055;-88
2022/04/06 05:10:09;;;;;;;2.22;1.05;;;;;;;4.14;53.65;98127.91;4960306;28;20054;-88
2022/04/06 05:12:37;;;;;;;3.78;1.30;;;;;;;4.21;53.60;98175.31;4945577;28;20100;-89
2022/04/06 05:15:08;;;;;;;2.35;1.10;;;;;;;3.68;53.54;98045.19;4943558;28;20082;-87
2022/04/06 05:17:36;;;;;;;1.23;1.13;;;;;;;4.06;52.79;98073.63;4963635;28;20054;-87
2022/04/06 05:20:06;;;;;;;1.10;1.00;;;;;;;4.77;51.84;98151.19;4979058;28;20070;-90
2022/04/06 05:22:35;;;;;;;1.17;0.98;;;;;;;5.15;50.96;98172.72;4945109;28;20500;-88
2022/04/06 05:25:10;;;;;;;1.63;1.23;;;;;;;5.31;49.45;98169.22;4954197;28;20050;-89
2022/04/06 05:27:51;;;;;;;1.63;1.10;;;;;;;5.32;50.12;98178.72;4933312;28;20058;-88
2022/04/06 05:30:21;;;;;;;1.45;1.00;;;;;;;5.07;48.86;98165.81;4967647;28;20074;-89
2022/04/06 05:32:50;;;;;;;;;;;;;;;5.13;50.36;98186.50;4986257;28;20051;-88
2022/04/06 05:35:18;;;;;;;1.38;0.98;;;;;;;5.07;49.12;98177.91;4966008;28;19926;-91
2022/04/06 05:37:46;;;;;;;1.67;0.98;;;;;;;4.95;49.09;98207.25;4978302;28;20505;-89
2022/04/06 05:40:19;;;;;;;2.75;1.08;;;;;;;4.77;48.27;98233.97;4944097;28;20053;-90
2022/04/06 05:42:52;;;;;;;0.77;0.77;;;;;;;3.79;49.33;98136.47;4959701;28;20110;-88
2022/04/06 05:45:21;;;;;;;2.05;0.85;;;;;;;4.15;49.94;98220.09;4961280;28;20089;-88
2022/04/06 05:47:49;;;;;;;1.23;0.73;;;;;;;3.73;49.99;98198.41;4981600;28;20470;-88
2022/04/06 05:50:17;;;;;;;1.33;0.70;;;;;;;3.98;50.56;98225.22;4995408;28;20068;-88
2022/04/06 05:52:45;;;;;;;1.42;0.80;;;;;;;4.19;49.69;98228.72;4978144;28;20484;-90
2022/04/06 05:55:12;;;;;;;1.48;1.30;;;;;;;4.05;49.28;98171.84;4976948;28;20054;-86
2022/04/06 05:57:40;;;;;;;0.70;0.70;;;;;;;3.60;49.32;98088.19;4950480;28;20476;-88
2022/04/06 06:00:10;;;;;;;1.20;1.10;;;;;;;4.58;48.89;98221.88;4943168;28;20046;-90
2022/04/06 06:02:39;;;;;;;1.00;0.88;;;;;;;4.16;48.37;98167.53;4945618;28;20050;-89
2022/04/06 06:05:08;;;;;;;2.20;1.35;;;;;;;4.82;48.90;98241.72;4979343;28;20538;-89
2022/04/06 06:07:45;;;;;;;1.15;1.05;;;;;;;4.48;48.87;98198.63;4956643;28;20105;-87
2022/04/06 06:10:16;;;;;;;2.40;1.10;;;;;;;4.40;49.07;98178.78;4948611;28;20086;-87
2022/04/06 06:12:44;;;;;;;2.33;1.00;;;;;;;4.39;49.62;98252.00;4954114;28;20058;-86
2022/04/06 06:15:12;;;;;;;2.00;1.20;;;;;;;4.28;50.03;98223.56;4981930;28;20061;-91
2022/04/06 06:17:40;;;;;;;1.73;1.42;;;;;;;4.70;50.67;98251.22;4973599;28;20041;-87
2022/04/06 06:20:10;;;;;;;2.43;1.70;;;;;;;4.93;50.17;98196.03;4985861;28;20050;-86
2022/04/06 06:22:38;;;;;;;2.10;1.58;;;;;;;4.65;49.36;98190.88;4978519;28;20290;-90
2022/04/06 06:25:07;;;;;;;1.40;1.30;;;;;;;4.23;50.79;98176.16;4979372;28;20102;-89
2022/04/06 06:27:44;;;;;;;2.13;1.50;;;;;;;4.18;51.60;98208.91;4928124;28;20148;-87
2022/04/06 06:30:17;;;;;;;1.88;1.73;;;;;;;4.66;51.38;98271.91;4960603;28;20290;-89
2022/04/06 06:32:45;;;;;;;3.08;2.00;;;;;;;4.51;50.33;98228.78;4976160;28;20179;-89
2022/04/06 06:35:13;;;;;;;2.13;1.88;;;;;;;4.92;49.12;98280.56;4976003;28;20051;-88
2022/04/06 06:37:51;;;;;;;1.83;1.55;;;;;;;5.01;49.02;98290.06;4946985;28;20057;-87
2022/04/06 06:40:21;;;;;;;2.35;1.60;;;;;;;4.86;48.98;98277.09;4961758;28;20468;-86
2022/04/06 06:42:48;;;;;;;1.40;1.30;;;;;;;4.33;48.58;98232.19;4995345;28;20073;-88
2022/04/06 06:45:17;;;;;;;1.63;1.52;;;;;;;4.85;47.71;98286.59;4958756;28;20066;-88
2022/04/06 06:47:46;;;;;;;2.05;1.30;;;;;;;5.03;47.62;98306.44;4960224;28;20122;-86
2022/04/06 06:50:16;;;;;;;4.07;1.85;;;;;;;5.25;46.20;98311.66;4991793;28;20105;-86
2022/04/06 06:52:45;;;;;;;1.77;1.52;;;;;;;4.97;45.32;98213.31;4947060;28;20046;-86
2022/04/06 06:55:18;;;;;;;1.42;1.10;;;;;;;5.21;44.67;98246.06;4977470;28;20065;-85
2022/04/06 06:57:46;;;;;;;3.15;1.33;;;;;;;5.49;44.62;98311.63;4994193;28;20047;-87
2022/04/06 07:00:15;;;;;;;0.80;0.80;;;;;;;5.38;44.21;98321.13;4971180;28;20050;-87
2022/04/06 07:02:42;;;;;;;0.90;0.77;;;;;;;5.30;43.14;98323.72;4968155;28;20436;-88
2022/04/06 07:05:11;;;;;;;2.05;1.23;;;;;;;4.70;43.61;98250.38;4972920;28;20089;-89
2022/04/06 07:07:56;;;;;;;3.60;1.58;;;;;;;5.10;44.10;98315.09;4971712;28;20410;-89
2022/04/06 07:10:25;;;;;;;1.63;1.15;;;;;;;4.77;43.88;98271.91;4991604;28;20069;-89
2022/04/06 07:16:15;;;;;;;3.63;1.00;;;;;;;5.41;43.67;98344.44;5173440;23;19910;-90
2022/04/06 07:18:46;;;;;;;1.38;1.20;;;;;;;4.44;43.69;98190.84;4951082;28;20081;-86
2022/04/06 07:21:16;;;;;;;1.77;1.17;;;;;;;5.30;42.91;98341.84;5000594;28;20038;-87
2022/04/06 07:23:44;;;;;;;3.10;0.98;;;;;;;5.17;42.55;98354.78;5000468;28;20500;-87
2022/04/06 07:26:13;;;;;;;1.98;1.40;;;;;;;4.72;42.91;98305.56;4981026;28;20055;-88
2022/04/06 07:28:40;;;;;;;1.52;0.90;;;;;;;4.53;42.50;98260.69;4991434;28;20063;-89
2022/04/06 07:31:07;;;;;;;3.97;1.67;;;;;;;5.18;42.89;98359.94;4992356;28;20058;-88
2022/04/06 07:33:36;;;;;;;2.88;1.50;;;;;;;5.35;42.58;98359.97;4981840;28;20050;-86
2022/04/06 07:36:05;;;;;;;2.28;1.30;;;;;;;5.24;43.08;98331.47;4999573;28;20055;-84
2022/04/06 07:38:33;;;;;;;1.52;1.10;;;;;;;5.07;42.62;98308.16;4957415;28;20077;-87
2022/04/06 07:41:00;;;;;;;5.35;1.52;;;;;;;5.47;43.11;98362.56;4977497;28;20091;-87
2022/04/06 07:43:27;;;;;;;2.17;1.25;;;;;;;5.39;42.08;98350.47;4968375;29;20071;-86
2022/04/06 07:45:54;;;;;;;9.57;1.80;;;;;;;5.09;42.50;98301.28;4958037;28;20059;-86
2022/04/06 07:48:25;;;;;;;2.83;1.27;;;;;;;5.15;42.18;98339.25;4972367;28;20050;-84
2022/04/06 07:50:54;;;;;;;2.97;1.30;;;;;;;4.96;41.73;98332.31;4990509;28;20051;-84
2022/04/06 07:53:22;;;;;;;2.55;1.30;;;;;;;5.21;42.59;98393.63;4998997;28;20059;-85
2022/04/06 07:55:50;;;;;;;2.05;1.30;;;;;;;5.09;42.93;98358.22;4997823;28;20055;-84
2022/04/06 07:58:18;;;;;;;1.88;1.50;;;;;;;5.53;42.70;98377.25;4981277;28;20058;-84
2022/04/06 08:00:46;;;;;;;2.63;1.20;;;;;;;5.56;42.29;98373.78;4965492;28;20114;-86
2022/04/06 08:03:14;;;;;;;3.97;1.25;;;;;;;5.59;42.00;98368.59;4978776;28;20070;-89
2022/04/06 08:05:41;;;;;;;2.70;1.33;;;;;;;5.64;41.68;98387.59;4977998;28;20084;-88
2022/04/06 08:08:09;;;;;;;3.38;1.50;;;;;;;5.34;41.21;98345.31;4972459;28;20054;-87
2022/04/06 08:10:36;;;;;;;1.20;1.10;;;;;;;5.35;41.77;98385.84;4985430;28;20046;-85
2022/04/06 08:13:05;;;;;;;1.42;0.88;;;;;;;5.15;41.87;98365.13;4966376;28;20074;-86
2022/04/06 08:15:33;;;;;;;3.38;1.20;;;;;;;5.16;41.88;98356.50;4963449;28;20114;-85
2022/04/06 08:18:00;;;;;;;2.22;1.17;;;;;;;5.42;41.66;98381.53;4962097;28;20082;-86
2022/04/06 08:20:27;;;;;;;4.45;1.40;;;;;;;4.94;41.47;98301.25;4978838;28;20053;-84
2022/04/06 08:22:56;;;;;;;6.82;2.85;;;;;;;5.20;40.81;98336.66;4963273;28;20072;-86
2022/04/06 08:25:24;;;;;;;5.30;1.15;;;;;;;5.32;40.53;98370.34;4964632;28;20054;-84
2022/04/06 08:28:07;;;;;;;1.48;1.00;;;;;;;5.18;40.14;98369.44;4950843;28;20055;-89
2022/04/06 08:30:40;;;;;;;2.25;1.00;;;;;;;4.74;40.03;98288.31;4931245;28;20051;-86
2022/04/06 08:33:10;;;;;;;1.17;1.08;;;;;;;5.28;40.11;98389.31;4945608;28;20059;-88
2022/04/06 08:35:39;;;;;;;2.00;1.37;;;;;;;5.22;40.79;98368.59;4928433;28;20145;-85
2022/04/06 08:38:21;;;;;;;5.38;1.77;;;;;;;5.37;40.12;98384.13;4931191;28;20051;-89
2022/04/06 08:40:49;;;;;;;3.83;1.58;;;;;;;5.40;40.09;98378.09;4929737;28;20458;-87
2022/04/06 08:43:17;;;;;;;2.50;1.10;;;;;;;5.40;40.45;98378.09;4961143;28;20050;-87
2022/04/06 08:45:45;;;;;;;4.03;1.10;;;;;;;5.46;40.35;98386.75;4941597;28;20463;-88
2022/04/06 08:48:13;;;;;;;1.58;1.00;;;;;;;5.28;40.17;98343.56;4968784;28;20130;-88
2022/04/06 08:50:42;;;;;;;2.83;1.10;;;;;;;5.54;39.18;98385.00;4967242;28;20061;-87
2022/04/06 08:53:09;;;;;;;3.83;1.20;;;;;;;5.47;39.33;98382.44;4976974;28;20034;-89
2022/04/06 08:55:37;;;;;;;1.60;1.30;;;;;;;5.04;39.27;98302.16;4983135;28;20059;-86
2022/04/06 08:58:05;;;;;;;1.83;0.90;;;;;;;5.70;38.69;98385.00;4970137;28;20086;-87
2022/04/06 09:00:32;;;;;;;3.42;1.50;;;;;;;5.67;37.59;98382.41;4930821;28;20493;-90
2022/04/06 09:03:00;;;;;;;1.33;0.90;;;;;;;5.56;37.44;98371.19;4946851;28;20468;-90
2022/04/06 09:05:32;;;;;;;3.33;1.85;;;;;;;5.61;36.91;98382.41;4948273;28;20074;-89
2022/04/06 09:08:03;;;;;;;5.63;1.60;;;;;;;5.25;37.12;98307.34;4929826;28;20055;-90
2022/04/06 09:10:42;;;;;;;3.85;1.00;;;;;;;5.00;36.89;98257.28;4931455;28;20051;-90
2022/04/06 09:13:13;;;;;;;2.58;0.90;;;;;;;5.28;37.33;98309.91;4931913;28;20075;-88
2022/04/06 09:15:43;;;;;;;2.05;0.93;;;;;;;6.00;35.85;98380.66;4979077;28;20517;-87
2022/04/06 09:18:15;;;;;;;2.33;0.95;;;;;;;5.90;35.65;98380.66;4926158;28;20428;-90
2022/04/06 09:20:43;;;;;;;5.70;1.17;;;;;;;4.90;35.93;98224.50;4929490;28;20059;-88
2022/04/06 09:23:12;;;;;;;3.45;1.00;;;;;;;5.42;35.10;98302.16;4978805;28;20051;-90
2022/04/06 09:25:41;;;;;;;2.78;1.08;;;;;;;5.62;35.42;98314.22;4944680;28;20445;-86
2022/04/06 09:28:16;;;;;;;3.42;1.20;;;;;;;5.95;34.41;98331.44;4944887;28;20507;-87
2022/04/06 09:30:45;;;;;;;4.05;1.02;;;;;;;6.32;34.21;98381.47;4960584;28;20054;-87
2022/04/06 09:33:18;;;;;;;2.38;0.90;;;;;;;6.07;34.27;98327.97;4960295;28;20416;-89
2022/04/06 09:35:47;;;;;;;3.90;1.00;;;;;;;6.06;33.75;98321.88;4945853;28;20479;-88
2022/04/06 09:38:25;;;;;;;4.63;2.45;;;;;;;5.52;34.45;98233.06;4942046;28;20468;-89
2022/04/06 09:41:06;;;;;;;3.97;1.00;;;;;;;6.11;34.66;98363.38;4935131;28;20431;-91
2022/04/06 09:43:35;;;;;;;2.05;1.13;;;;;;;5.56;34.95;98304.72;4975677;28;20089;-83
2022/04/06 09:49:13;;;;;;;3.58;1.00;;;;;;;6.00;34.79;98354.75;4957910;28;20057;-90
2022/04/06 09:51:48;;;;;;;2.17;0.90;;;;;;;6.21;34.39;98392.72;4941498;28;20073;-91
2022/04/06 09:54:17;;;;;;;2.22;0.90;;;;;;;6.03;33.55;98353.03;4925572;28;20047;-86
2022/04/06 09:56:44;;;;;;;3.15;1.10;;;;;;;6.22;33.83;98399.66;4942696;28;20090;-88
2022/04/06 09:59:14;;;;;;;4.38;0.82;;;;;;;6.10;33.75;98379.78;4972883;28;20054;-91
2022/04/06 10:01:48;;;;;;;0.70;0.60;;;;;;;5.90;33.43;98315.00;4963287;28;20085;-88
2022/04/06 10:04:25;;;;;;;2.97;0.70;;;;;;;6.04;32.54;98357.31;4934330;28;20066;-87
2022/04/06 10:06:56;;;;;;;1.95;0.88;;;;;;;6.27;32.54;98384.94;4959595;29;20142;-89
2022/04/06 10:09:27;;;;;;;1.52;0.90;;;;;;;5.78;32.24;98287.38;4950370;29;20156;-90
2022/04/06 10:12:03;;;;;;;1.45;0.77;;;;;;;6.21;32.01;98314.94;4905974;29;20507;-90
2022/04/06 10:14:41;;;;;;;1.83;0.57;;;;;;;6.52;32.39;98355.44;4934209;29;20063;-89
2022/04/06 10:17:13;;;;;;;2.97;0.85;;;;;;;6.77;32.50;98373.47;4908536;29;20465;-92
2022/04/06 10:19:52;;;;;;;2.65;1.05;;;;;;;6.54;32.76;98322.56;4910126;29;20057;-89
2022/04/06 10:22:32;;;;;;;3.67;1.00;;;;;;;6.96;33.04;98380.28;4923667;29;20055;-90
2022/04/06 10:25:10;;;;;;;15.68;4.60;;;;;;;6.73;32.93;98340.63;4929513;29;20102;-92
2022/04/06 10:27:52;;;;;;;1.88;1.10;;;;;;;7.05;32.59;98381.97;4947787;29;20087;-90
2022/04/06 10:30:23;;;;;;;1.58;0.70;;;;;;;7.09;32.24;98375.91;4916915;29;20063;-89
2022/04/06 10:32:57;;;;;;;1.75;0.80;;;;;;;6.87;32.34;98344.00;4964921;29;20047;-90
2022/04/06 10:35:33;;;;;;;0.95;0.70;;;;;;;6.96;32.46;98379.44;4903897;29;20059;-87
2022/04/06 10:38:05;;;;;;;1.27;0.80;;;;;;;6.98;31.69;98380.28;4926838;29;20125;-92
2022/04/06 10:40:48;;;;;;;3.33;0.80;;;;;;;6.94;31.79;98382.03;4941121;29;20062;-92
2022/04/06 10:43:56;;;;;;;4.43;1.25;;;;;;;6.96;31.73;98366.47;4941335;29;20102;-92
2022/04/06 10:46:40;;;;;;;2.83;0.95;;;;;;;7.00;31.57;98368.16;4959921;29;20084;-86
2022/04/06 10:49:13;;;;;;;2.58;1.08;;;;;;;7.07;31.01;98369.00;4957658;29;20055;-85
2022/04/06 10:51:43;;;;;;;0.90;0.70;;;;;;;6.86;30.47;98350.09;4944921;29;20110;-87
2022/04/06 10:54:13;;;;;;;4.20;1.00;;;;;;;6.86;31.34;98367.38;4924280;29;20058;-87
2022/04/06 10:56:49;;;;;;;4.13;0.82;;;;;;;6.90;31.86;98366.50;4941047;29;20055;-87
2022/04/06 10:59:20;;;;;;;3.35;1.23;;;;;;;6.84;31.24;98356.13;4941156;29;20149;-90
2022/04/06 11:02:27;;;;;;;2.35;0.98;;;;;;;6.99;30.75;98379.44;4958349;29;20055;-88
2022/04/06 11:04:56;;;;;;;2.40;0.65;;;;;;;6.95;30.58;98383.78;4955401;29;20453;-89
2022/04/06 11:10:22;;;;;;;0.82;0.70;;;;;;;7.02;30.58;98362.97;4939249;29;20055;-87
2022/04/06 11:13:02;;;;;;;2.08;0.60;;;;;;;7.17;30.39;98373.25;4938827;29;20452;-86
2022/04/06 11:15:40;;;;;;;2.55;1.40;;;;;;;6.89;29.50;98344.88;4956382;29;20063;-87
2022/04/06 11:18:48;;;;;;;1.38;0.73;;;;;;;6.97;29.89;98373.41;4956559;29;20501;-88
2022/04/06 11:21:16;;;;;;;4.95;0.95;;;;;;;7.09;29.78;98362.91;4956399;29;20118;-88
2022/04/06 11:23:46;;;;;;;1.08;0.68;;;;;;;7.05;29.62;98365.53;4942265;29;20078;-86
2022/04/06 11:26:15;;;;;;;0.90;0.60;;;;;;;6.75;30.02;98359.66;4946930;28;20094;-86
2022/04/06 11:28:43;;;;;;;0.88;0.88;;;;;;;6.73;29.56;98393.41;4946804;28;20050;-89
2022/04/06 11:31:11;;;;;;;1.08;0.63;;;;;;;6.73;28.89;98336.31;4971677;28;20457;-88
2022/04/06 11:33:40;;;;;;;1.05;0.68;;;;;;;7.09;29.49;98365.50;4956314;29;20051;-87
2022/04/06 11:36:13;;;;;;;1.17;0.85;;;;;;;7.15;29.03;98349.88;4941923;29;20051;-87
2022/04/06 11:38:41;;;;;;;1.40;0.55;;;;;;;7.21;28.70;98348.13;4961915;29;20054;-87
2022/04/06 11:41:12;;;;;;;1.17;0.75;;;;;;;7.27;28.62;98333.38;4946305;29;20118;-88
2022/04/06 11:43:46;;;;;;;1.20;0.68;;;;;;;7.36;28.49;98330.69;4943794;29;20127;-88
2022/04/06 11:46:13;;;;;;;0.53;0.53;;;;;;;7.36;28.72;98358.41;4945045;29;20596;-87
2022/04/06 11:48:46;;;;;;;2.83;0.68;;;;;;;6.30;28.52;98235.38;4924626;29;20066;-89
2022/04/06 11:51:15;;;;;;;0.80;0.60;;;;;;;6.88;28.16;98283.47;4945288;29;20060;-89
2022/04/06 11:53:44;;;;;;;2.05;0.70;;;;;;;6.65;28.24;98267.19;4941621;29;20056;-85
2022/04/06 11:56:20;;;;;;;1.55;0.57;;;;;;;6.99;27.68;98298.97;4907291;29;20405;-86
2022/04/06 11:58:55;;;;;;;0.95;0.70;;;;;;;7.22;27.62;98357.63;4922332;29;20059;-89
2022/04/06 12:01:28;;;;;;;3.67;0.85;;;;;;;7.16;28.16;98346.44;4905948;29;20425;-84
2022/04/06 12:04:25;;;;;;;1.63;0.70;;;;;;;7.26;28.70;98335.97;4940086;29;20067;-84
2022/04/06 12:06:59;;;;;;;4.05;0.73;;;;;;;7.26;29.20;98331.63;4941976;29;20090;-86